Time;durP1;ratioP1;P1;durP2;ratioP2;P2;SDS_P1;SDS_P2;PMS_P1;PMS_P2;Temp;Humidity;BMP_temperature;BMP_pressure;BME280_temperature;BME280_humidity;BME280_pressure;Samples;Min_cycle;Max_cycle;Signal;HPM_P1;HPM_P2
2022/08/02 00:00:33;;;;;;;6.68;1.75;;;;;;;14.35;83.46;101785.50;5163466;27;20485;-61
2022/08/02 00:03:02;;;;;;;5.43;1.60;;;;;;;14.28;83.49;101788.69;5155829;27;20054;-58
2022/08/02 00:05:30;;;;;;;6.78;1.80;;;;;;;14.34;84.79;101785.59;5155596;27;20485;-59
2022/08/02 00:07:59;;;;;;;5.63;1.73;;;;;;;14.38;84.74;101789.75;5155460;27;20046;-59
2022/08/02 00:10:27;;;;;;;4.28;1.45;;;;;;;14.37;84.54;101783.63;5155638;27;20450;-60
2022/08/02 00:12:57;;;;;;;6.13;1.58;;;;;;;14.34;84.23;101786.47;5155476;27;20400;-61
2022/08/02 00:15:26;;;;;;;4.55;1.50;;;;;;;14.29;84.74;101780.63;5155708;27;20047;-61
2022/08/02 00:17:54;;;;;;;2.83;1.40;;;;;;;14.23;84.00;101783.66;5156236;27;20067;-59
2022/08/02 00:20:22;;;;;;;5.57;1.40;;;;;;;14.22;81.98;101778.47;5137082;27;20047;-59
2022/08/02 00:22:50;;;;;;;6.25;2.03;;;;;;;14.07;83.69;101780.31;5155390;27;20050;-59
2022/08/02 00:25:20;;;;;;;5.85;1.80;;;;;;;14.09;84.69;101778.44;5154150;27;20038;-59
2022/08/02 00:27:48;;;;;;;3.08;1.35;;;;;;;14.06;86.13;101786.56;5152646;27;20515;-60
2022/08/02 00:30:16;;;;;;;4.68;1.42;;;;;;;14.07;84.12;101785.63;5153968;27;20099;-61
2022/08/02 00:32:44;;;;;;;4.43;1.73;;;;;;;14.19;82.58;101782.16;5136979;27;20520;-58
2022/08/02 00:35:12;;;;;;;7.03;2.08;;;;;;;14.12;84.16;101788.81;5154512;27;20047;-59
2022/08/02 00:37:41;;;;;;;6.10;1.95;;;;;;;14.17;84.09;101790.22;5154834;27;20054;-61
2022/08/02 00:40:11;;;;;;;4.65;1.90;;;;;;;14.19;83.54;101784.81;5154567;27;20111;-59
2022/08/02 00:42:40;;;;;;;7.50;1.75;;;;;;;14.16;83.03;101788.50;5154654;27;20038;-61
2022/08/02 00:45:09;;;;;;;5.07;1.60;;;;;;;14.07;81.48;101781.19;5136133;27;20051;-62
2022/08/02 00:47:37;;;;;;;5.88;1.60;;;;;;;13.99;82.08;101780.84;5154873;27;20080;-61
2022/08/02 00:50:06;;;;;;;4.72;1.90;;;;;;;13.98;81.84;101774.69;5154696;27;20069;-61
2022/08/02 00:52:34;;;;;;;3.78;1.80;;;;;;;14.05;83.98;101769.84;5155037;27;20046;-58
2022/08/02 00:55:02;;;;;;;5.22;1.83;;;;;;;13.99;84.23;101768.47;5154894;27;20038;-61
2022/08/02 00:57:30;;;;;;;5.22;2.42;;;;;;;14.00;83.49;101770.16;5154954;27;20493;-59
2022/08/02 01:00:00;;;;;;;5.32;2.08;;;;;;;14.02;82.56;101770.91;5154977;27;20099;-59
2022/08/02 01:02:28;;;;;;;6.57;1.90;;;;;;;13.96;83.31;101771.31;5152535;27;20074;-61
2022/08/02 01:04:56;;;;;;;6.25;2.00;;;;;;;14.02;83.27;101764.78;5133878;27;20085;-61
2022/08/02 01:07:25;;;;;;;8.63;2.08;;;;;;;13.95;82.75;101769.59;5155001;27;20073;-61
2022/08/02 01:09:53;;;;;;;7.28;2.45;;;;;;;13.94;82.92;101767.06;5154795;27;20400;-59
2022/08/02 01:12:21;;;;;;;7.15;2.50;;;;;;;13.90;82.58;101768.22;5154900;27;20554;-61
2022/08/02 01:14:51;;;;;;;7.25;2.33;;;;;;;13.95;82.31;101776.72;5152081;27;20068;-61
2022/08/02 01:17:32;;;;;;;7.85;2.67;;;;;;;13.90;84.32;101777.00;5151591;27;20042;-59
2022/08/02 01:20:08;;;;;;;5.38;2.20;;;;;;;14.00;84.65;101770.16;5153935;27;20047;-61
2022/08/02 01:23:01;;;;;;;4.57;1.90;;;;;;;13.91;85.11;101772.56;5154411;27;20038;-61
2022/08/02 01:25:53;;;;;;;6.22;2.45;;;;;;;13.78;84.11;101764.56;5154237;27;20129;-60
2022/08/02 01:28:41;;;;;;;7.28;2.50;;;;;;;13.77;84.54;101765.50;5152556;27;20058;-61
2022/08/02 01:31:15;;;;;;;7.30;2.50;;;;;;;13.73;84.72;101756.94;5154281;27;20095;-60
2022/08/02 01:33:48;;;;;;;8.50;3.35;;;;;;;13.74;84.95;101757.78;5154561;27;20038;-60
2022/08/02 01:36:20;;;;;;;5.80;3.00;;;;;;;13.76;84.19;101762.00;5154320;27;20039;-58
2022/08/02 01:38:50;;;;;;;6.72;2.55;;;;;;;13.76;84.70;101758.53;5154267;27;20505;-61
2022/08/02 01:41:21;;;;;;;7.82;2.80;;;;;;;13.69;84.47;101753.63;5151665;27;20051;-60
2022/08/02 01:43:55;;;;;;;5.65;2.80;;;;;;;13.65;85.41;101744.19;5151744;27;20043;-58
2022/08/02 01:46:25;;;;;;;7.00;2.88;;;;;;;13.61;86.11;101737.41;5153863;27;20485;-58
2022/08/02 01:48:56;;;;;;;7.55;3.03;;;;;;;13.65;85.80;101743.34;5151882;27;20138;-59
2022/08/02 01:54:11;;;;;;;7.35;2.83;;;;;;;13.51;86.98;101731.88;5153116;27;20051;-60
2022/08/02 01:56:42;;;;;;;6.53;2.97;;;;;;;13.67;86.69;101746.75;5153722;27;20050;-61
2022/08/02 01:59:16;;;;;;;11.32;3.50;;;;;;;13.58;86.97;101734.09;5153114;27;20038;-59
2022/08/02 02:01:47;;;;;;;7.70;3.08;;;;;;;13.51;87.09;101725.72;5153643;27;20042;-62
2022/08/02 02:04:17;;;;;;;8.57;3.60;;;;;;;13.46;87.51;101738.41;5153743;27;20051;-59
2022/08/02 02:06:46;;;;;;;8.20;3.22;;;;;;;13.55;87.73;101739.59;5153785;27;20500;-61
2022/08/02 02:09:15;;;;;;;6.38;3.25;;;;;;;13.62;86.51;101728.53;5135156;27;20047;-60
2022/08/02 02:11:45;;;;;;;6.43;2.97;;;;;;;13.52;87.46;101728.28;5153881;27;20043;-60
2022/08/02 02:14:37;;;;;;;7.40;3.30;;;;;;;13.42;88.44;101721.88;5153613;27;20046;-60
2022/08/02 02:17:06;;;;;;;6.15;3.17;;;;;;;13.42;88.38;101726.31;5153210;27;20053;-61
2022/08/02 02:19:57;;;;;;;7.47;3.25;;;;;;;13.37;88.70;101723.13;5153714;27;20062;-58
2022/08/02 02:22:26;;;;;;;10.85;3.38;;;;;;;13.37;89.01;101728.41;5153859;27;20058;-61
2022/08/02 02:24:55;;;;;;;6.85;3.00;;;;;;;13.43;89.10;101717.44;5152827;27;20038;-59
2022/08/02 02:27:23;;;;;;;7.25;3.42;;;;;;;13.41;89.90;101717.53;5150852;27;20090;-61
2022/08/02 02:29:54;;;;;;;7.05;3.30;;;;;;;13.39;89.86;101716.78;5152603;27;20067;-59
2022/08/02 02:32:26;;;;;;;8.20;3.10;;;;;;;13.33;90.11;101710.06;5153400;27;20046;-60
2022/08/02 02:34:55;;;;;;;6.45;3.20;;;;;;;13.23;90.60;101713.38;5135077;27;20103;-58
2022/08/02 02:37:26;;;;;;;8.45;3.58;;;;;;;13.23;91.01;101700.19;5133612;27;20149;-59
2022/08/02 02:39:55;;;;;;;7.30;3.60;;;;;;;13.20;91.85;101714.44;5150455;27;20051;-61
2022/08/02 02:42:28;;;;;;;5.10;2.97;;;;;;;13.20;92.10;101706.50;5152441;27;20039;-59
2022/08/02 02:44:58;;;;;;;7.53;3.50;;;;;;;13.19;92.93;101710.91;5152967;27;20046;-61
2022/08/02 02:47:29;;;;;;;10.70;3.78;;;;;;;13.17;93.60;101712.81;5154642;27;20047;-61
2022/08/02 02:50:10;;;;;;;12.80;4.13;;;;;;;13.15;94.16;101703.28;5157349;27;20055;-58
2022/08/02 02:52:40;;;;;;;8.90;4.38;;;;;;;13.07;95.59;101701.13;5157328;27;20057;-58
2022/08/02 02:55:09;;;;;;;7.90;4.00;;;;;;;13.09;95.90;101693.09;5157362;27;20050;-61
2022/08/02 02:57:38;;;;;;;10.18;4.10;;;;;;;13.21;95.96;101688.84;5156419;27;20042;-61
2022/08/02 03:00:12;;;;;;;10.38;4.65;;;;;;;13.16;95.43;101683.88;5135948;27;20505;-61
2022/08/02 03:02:42;;;;;;;8.40;4.63;;;;;;;13.07;95.76;101685.28;5155594;27;20054;-58
2022/08/02 03:05:12;;;;;;;12.40;4.50;;;;;;;13.14;95.50;101683.09;5157143;27;20126;-60
2022/08/02 03:07:41;;;;;;;11.07;5.00;;;;;;;13.10;95.95;101676.31;5156823;27;20039;-60
2022/08/02 03:10:10;;;;;;;11.25;5.63;;;;;;;13.04;96.65;101688.13;5156448;27;20087;-61
2022/08/02 03:12:38;;;;;;;12.45;5.90;;;;;;;13.08;96.74;101694.06;5153974;27;20100;-61
2022/08/02 03:15:12;;;;;;;15.15;5.82;;;;;;;13.08;96.91;101699.34;5155739;27;20054;-60
2022/08/02 03:17:42;;;;;;;12.70;5.70;;;;;;;13.03;96.64;101694.34;5156940;27;20038;-60
2022/08/02 03:20:12;;;;;;;11.00;5.55;;;;;;;13.14;96.77;101697.19;5156682;27;20054;-61
2022/08/02 03:22:41;;;;;;;10.75;5.43;;;;;;;13.12;97.43;101700.84;5156869;27;20046;-61
2022/08/02 03:25:10;;;;;;;9.75;5.35;;;;;;;13.08;97.01;101699.34;5156521;27;20043;-58
2022/08/02 03:27:39;;;;;;;8.93;4.60;;;;;;;13.09;97.55;101695.75;5156714;27;20397;-58
2022/08/02 03:30:12;;;;;;;13.35;5.20;;;;;;;13.12;97.10;101693.78;5156618;27;20445;-59
2022/08/02 03:32:43;;;;;;;10.93;5.03;;;;;;;13.12;97.45;101692.94;5155598;27;20077;-59
2022/08/02 03:35:15;;;;;;;17.48;5.82;;;;;;;13.08;99.10;101691.44;5153707;27;20042;-59
2022/08/02 03:37:52;;;;;;;12.48;5.20;;;;;;;13.02;99.91;101698.78;5154635;27;20137;-59
2022/08/02 03:40:21;;;;;;;15.07;6.00;;;;;;;13.04;99.49;101695.19;5156423;27;20049;-61
2022/08/02 03:42:50;;;;;;;10.40;5.03;;;;;;;12.99;99.73;101693.69;5156390;27;20046;-59
2022/08/02 03:45:20;;;;;;;12.80;5.18;;;;;;;13.10;100.00;101673.69;5156149;27;20092;-61
2022/08/02 03:47:50;;;;;;;9.75;4.95;;;;;;;13.17;99.29;101670.56;5156450;27;20041;-59
2022/08/02 03:50:21;;;;;;;9.10;4.43;;;;;;;13.11;100.00;101670.09;5156044;27;20069;-58
2022/08/02 03:52:50;;;;;;;11.70;4.93;;;;;;;13.02;100.00;101676.81;5156441;27;20063;-59
2022/08/02 03:55:19;;;;;;;10.98;5.45;;;;;;;13.07;100.00;101682.63;5155963;27;20070;-61
2022/08/02 03:57:47;;;;;;;11.98;4.95;;;;;;;13.18;100.00;101680.19;5155597;27;20041;-61
2022/08/02 04:00:20;;;;;;;12.70;5.43;;;;;;;13.12;100.00;101677.91;5154204;27;20085;-59
2022/08/02 04:02:49;;;;;;;9.75;5.10;;;;;;;13.19;100.00;101678.38;5153787;27;20061;-61
2022/08/02 04:05:18;;;;;;;9.80;5.22;;;;;;;13.21;100.00;101679.16;5154248;27;20046;-61
2022/08/02 04:07:47;;;;;;;10.23;4.93;;;;;;;13.24;100.00;101678.09;5155486;27;20042;-61
2022/08/02 04:11:29;;;;;;;9.43;4.63;;;;;;;13.32;100.00;101684.59;5155530;27;20050;-61
2022/08/02 04:13:29;;;;;;;11.55;5.40;;;;;;;13.31;100.00;101674.13;5155311;27;20051;-61
2022/08/02 04:16:10;;;;;;;8.85;5.18;;;;;;;13.28;100.00;101667.25;5155585;27;20435;-61
2022/08/02 04:18:43;;;;;;;8.70;4.90;;;;;;;13.37;100.00;101665.00;5155613;27;20146;-58
2022/08/02 04:21:14;;;;;;;11.45;5.25;;;;;;;13.39;100.00;101671.00;5155540;27;20050;-59
2022/08/02 04:23:45;;;;;;;12.55;4.85;;;;;;;13.41;100.00;101666.50;5134844;27;20054;-61
2022/08/02 04:26:14;;;;;;;11.52;5.30;;;;;;;13.42;100.00;101673.47;5152260;27;20034;-58
2022/08/02 04:28:43;;;;;;;11.20;5.10;;;;;;;13.52;100.00;101669.28;5154958;27;20046;-59
2022/08/02 04:31:13;;;;;;;8.88;5.30;;;;;;;13.51;100.00;101665.81;5154512;27;20050;-61
2022/08/02 04:33:42;;;;;;;12.07;5.53;;;;;;;13.51;100.00;101667.56;5153189;27;20054;-61
2022/08/02 04:36:12;;;;;;;9.73;5.07;;;;;;;13.55;100.00;101666.44;5153423;27;20659;-58
2022/08/02 04:38:41;;;;;;;10.32;5.35;;;;;;;13.55;100.00;101673.53;5155321;27;20355;-61
2022/08/02 04:41:09;;;;;;;9.40;4.90;;;;;;;13.59;100.00;101675.84;5155125;27;20047;-60
2022/08/02 04:43:37;;;;;;;10.07;4.57;;;;;;;13.62;100.00;101672.16;5155291;27;20109;-59
2022/08/02 04:46:05;;;;;;;9.82;4.75;;;;;;;13.64;100.00;101679.06;5155870;27;20046;-58
2022/08/02 04:48:35;;;;;;;12.25;4.68;;;;;;;13.69;100.00;101686.72;5156071;27;20035;-58
2022/08/02 04:51:03;;;;;;;13.52;5.20;;;;;;;13.71;100.00;101678.69;5155691;27;20050;-59
2022/08/02 04:53:31;;;;;;;8.40;4.47;;;;;;;13.73;100.00;101682.06;5155955;27;20501;-59
2022/08/02 04:55:59;;;;;;;10.35;4.95;;;;;;;13.76;100.00;101674.78;5153135;27;20046;-59
2022/08/02 04:58:27;;;;;;;10.77;5.30;;;;;;;13.71;100.00;101668.09;5134070;27;20153;-61
2022/08/02 05:01:11;;;;;;;7.82;4.55;;;;;;;13.76;99.98;101666.00;5155029;27;20057;-59
2022/08/02 05:03:40;;;;;;;11.10;4.70;;;;;;;13.72;100.00;101662.72;5153244;27;20054;-61
2022/08/02 05:06:08;;;;;;;9.82;5.32;;;;;;;13.76;100.00;101672.13;5151496;27;20051;-59
2022/08/02 05:08:46;;;;;;;10.02;4.57;;;;;;;13.79;100.00;101671.09;5154733;27;20038;-62
2022/08/02 05:11:20;;;;;;;11.82;5.00;;;;;;;13.79;100.00;101665.81;5154449;27;20039;-58
2022/08/02 05:13:56;;;;;;;10.70;4.90;;;;;;;13.88;100.00;101670.50;5153458;27;20046;-59
2022/08/02 05:16:26;;;;;;;11.05;4.88;;;;;;;13.96;100.00;101672.59;5151844;27;20162;-62
2022/08/02 05:19:00;;;;;;;13.13;5.53;;;;;;;13.96;100.00;101662.03;5154012;27;20430;-60
2022/08/02 05:21:30;;;;;;;12.88;5.18;;;;;;;14.06;100.00;101663.13;5154826;27;20039;-58
2022/08/02 05:23:58;;;;;;;10.23;4.85;;;;;;;14.11;100.00;101665.44;5154737;27;20039;-59
2022/08/02 05:26:26;;;;;;;10.95;5.50;;;;;;;14.12;100.00;101662.69;5152328;27;20126;-61
2022/08/02 05:28:54;;;;;;;11.27;5.20;;;;;;;14.29;100.00;101668.63;5150321;27;20497;-59
2022/08/02 05:31:22;;;;;;;10.13;5.70;;;;;;;14.31;100.00;101666.75;5153700;27;20057;-59
2022/08/02 05:33:50;;;;;;;9.75;5.32;;;;;;;14.32;100.00;101660.50;5155557;27;20051;-60
2022/08/02 05:36:19;;;;;;;11.27;5.63;;;;;;;14.39;100.00;101658.31;5154563;27;20055;-59
2022/08/02 05:38:49;;;;;;;10.75;5.75;;;;;;;14.45;100.00;101664.03;5154440;27;20053;-61
2022/08/02 05:41:18;;;;;;;9.45;5.30;;;;;;;14.53;100.00;101666.13;5153859;27;20442;-61
2022/08/02 05:43:46;;;;;;;11.48;5.40;;;;;;;14.60;100.00;101655.97;5154127;27;20088;-61
2022/08/02 05:46:14;;;;;;;10.73;5.43;;;;;;;14.67;100.00;101651.97;5153876;27;20135;-61
2022/08/02 05:48:43;;;;;;;10.43;5.57;;;;;;;14.75;100.00;101662.03;5154188;27;20489;-58
2022/08/02 05:51:15;;;;;;;8.93;5.50;;;;;;;14.84;100.00;101651.63;5153547;27;20071;-58
2022/08/02 05:53:51;;;;;;;10.63;6.15;;;;;;;14.92;100.00;101648.44;5154066;27;20486;-58
2022/08/02 05:56:25;;;;;;;13.00;5.82;;;;;;;15.00;100.00;101654.03;5153732;27;20050;-58
2022/08/02 05:59:02;;;;;;;12.82;5.47;;;;;;;15.13;100.00;101653.16;5153586;27;20051;-58
2022/08/02 06:01:35;;;;;;;10.93;4.97;;;;;;;15.23;100.00;101648.91;5153775;27;20051;-61
2022/08/02 06:04:07;;;;;;;8.90;5.70;;;;;;;15.35;100.00;101655.09;5153876;27;20095;-59
2022/08/02 06:06:37;;;;;;;12.05;5.90;;;;;;;15.45;100.00;101657.97;5153410;27;20042;-61
2022/08/02 06:09:09;;;;;;;11.60;6.53;;;;;;;15.56;100.00;101660.66;5153272;27;20073;-59
2022/08/02 06:11:39;;;;;;;12.68;6.15;;;;;;;15.67;100.00;101660.72;5153729;27;20475;-61
2022/08/02 06:14:30;;;;;;;12.30;5.75;;;;;;;15.80;100.00;101658.03;5135249;27;20051;-58
2022/08/02 06:16:59;;;;;;;9.70;5.07;;;;;;;15.91;100.00;101665.19;5134709;27;20046;-62
2022/08/02 06:19:31;;;;;;;11.30;5.82;;;;;;;16.04;100.00;101665.09;5152843;27;20095;-59
2022/08/02 06:22:18;;;;;;;11.05;6.30;;;;;;;16.19;100.00;101655.13;5154048;27;20501;-59
2022/08/02 06:25:08;;;;;;;12.25;6.45;;;;;;;16.37;99.96;101659.06;5178499;27;20087;-59
2022/08/02 06:27:57;;;;;;;9.98;5.32;;;;;;;16.58;100.00;101660.13;5178586;27;20111;-60
2022/08/02 06:30:26;;;;;;;9.75;4.40;;;;;;;16.77;98.07;101657.75;5178361;27;20049;-61
2022/08/02 06:32:55;;;;;;;11.93;4.95;;;;;;;16.98;98.73;101651.72;5178417;27;20038;-62
2022/08/02 06:35:25;;;;;;;13.85;5.07;;;;;;;17.12;97.28;101635.50;5178203;27;20034;-62
2022/08/02 06:37:59;;;;;;;9.38;4.88;;;;;;;17.34;95.42;101642.63;5178332;27;20038;-62
2022/08/02 06:40:32;;;;;;;10.77;5.05;;;;;;;17.46;94.52;101638.09;5178238;27;20042;-59
2022/08/02 06:43:13;;;;;;;12.85;4.30;;;;;;;17.55;96.71;101639.16;5178346;27;20068;-60
2022/08/02 06:45:41;;;;;;;10.48;4.63;;;;;;;17.68;95.24;101646.97;5178351;27;20046;-62
2022/08/02 06:48:10;;;;;;;9.43;3.97;;;;;;;17.81;94.83;101649.47;5178092;27;20080;-62
2022/08/02 06:50:40;;;;;;;9.90;4.10;;;;;;;18.03;94.83;101644.03;5177971;27;20054;-62
2022/08/02 06:53:09;;;;;;;9.07;4.38;;;;;;;18.22;93.99;101632.69;5178148;27;20664;-62
2022/08/02 06:55:39;;;;;;;11.70;4.13;;;;;;;18.34;92.50;101630.78;5177942;27;20083;-60
2022/08/02 06:58:12;;;;;;;10.75;4.30;;;;;;;18.57;92.53;101638.63;5178441;27;20046;-59
2022/08/02 07:00:40;;;;;;;7.47;3.95;;;;;;;18.74;91.47;101629.97;5178068;27;20046;-59
2022/08/02 07:03:09;;;;;;;11.13;4.15;;;;;;;18.93;90.85;101623.06;5177931;27;20091;-60
2022/08/02 07:05:37;;;;;;;11.48;5.30;;;;;;;19.11;90.53;101619.75;5178221;27;20523;-59
2022/08/02 07:08:05;;;;;;;13.63;4.13;;;;;;;19.34;88.23;101626.53;5177938;27;20038;-62
2022/08/02 07:10:33;;;;;;;9.63;4.20;;;;;;;19.56;86.95;101624.56;5177968;27;20049;-61
2022/08/02 07:13:03;;;;;;;12.57;4.25;;;;;;;19.74;86.46;101624.72;5177613;27;20072;-62
2022/08/02 07:15:31;;;;;;;13.63;4.45;;;;;;;19.98;85.40;101620.81;5177713;27;20404;-63
2022/08/02 07:17:59;;;;;;;11.88;4.50;;;;;;;20.19;83.30;101625.94;5177527;27;20042;-62
2022/08/02 07:20:27;;;;;;;12.98;4.22;;;;;;;20.40;83.29;101615.91;5177689;27;20106;-59
2022/08/02 07:22:56;;;;;;;9.00;4.25;;;;;;;20.55;82.50;101615.44;5177502;27;20052;-60
2022/08/02 07:25:24;;;;;;;11.57;4.22;;;;;;;20.80;82.27;101610.44;5177476;27;20034;-59
2022/08/02 07:28:15;;;;;;;10.52;4.20;;;;;;;20.98;81.12;101599.78;5177025;27;20042;-62
2022/08/02 07:30:51;;;;;;;9.70;4.00;;;;;;;21.16;79.38;101597.97;5177419;27;20073;-59
2022/08/02 07:33:20;;;;;;;10.45;3.80;;;;;;;21.28;78.97;101601.25;5177628;27;20418;-59
2022/08/02 07:36:07;;;;;;;8.32;3.42;;;;;;;21.53;77.38;101588.13;5177707;27;20401;-59
2022/08/02 07:38:43;;;;;;;8.20;3.80;;;;;;;21.73;78.25;101595.00;5177082;27;20091;-59
2022/08/02 07:41:15;;;;;;;9.45;3.45;;;;;;;21.97;77.69;101595.34;5177306;27;20034;-62
2022/08/02 07:43:44;;;;;;;13.20;4.18;;;;;;;22.12;76.16;101599.94;5158702;27;20048;-59
2022/08/02 07:46:12;;;;;;;8.60;4.20;;;;;;;22.12;75.07;101599.94;5177155;27;20049;-62
2022/08/02 07:48:40;;;;;;;7.57;3.78;;;;;;;22.27;74.80;101580.63;5177218;27;20077;-63
2022/08/02 07:51:08;;;;;;;10.35;3.47;;;;;;;22.42;74.17;101581.72;5176528;27;20074;-63
2022/08/02 07:53:43;;;;;;;7.13;4.00;;;;;;;22.45;72.81;101578.75;5176746;27;20046;-59
2022/08/02 07:56:18;;;;;;;7.82;3.50;;;;;;;22.70;72.36;101586.88;5176470;27;20053;-60
2022/08/02 07:58:48;;;;;;;8.13;3.95;;;;;;;22.91;71.35;101581.06;5176444;27;20042;-61
2022/08/02 08:01:19;;;;;;;10.13;4.25;;;;;;;23.02;72.57;101577.25;5176632;27;20485;-61
2022/08/02 08:03:47;;;;;;;8.27;3.67;;;;;;;23.25;72.65;101584.72;5176331;27;20053;-57
2022/08/02 08:06:15;;;;;;;11.77;3.97;;;;;;;23.37;71.77;101569.97;5176580;27;20627;-57
2022/08/02 08:08:43;;;;;;;10.23;4.00;;;;;;;23.49;72.99;101574.97;5176347;27;20050;-59
2022/08/02 08:11:11;;;;;;;8.15;3.55;;;;;;;23.58;71.86;101572.13;5158360;27;20042;-58
2022/08/02 08:13:39;;;;;;;11.82;4.18;;;;;;;23.75;70.83;101574.78;5176403;27;20053;-63
2022/08/02 08:16:08;;;;;;;6.78;3.55;;;;;;;23.95;69.71;101573.44;5176381;27;20061;-59
2022/08/02 08:18:36;;;;;;;8.25;3.53;;;;;;;24.13;70.73;101569.72;5176729;27;20046;-58
2022/08/02 08:21:05;;;;;;;9.52;4.15;;;;;;;24.26;69.93;101561.13;5176507;27;20072;-59
2022/08/02 08:23:34;;;;;;;12.55;4.72;;;;;;;24.47;66.91;101564.09;5176115;27;20451;-59
2022/08/02 08:26:02;;;;;;;7.30;3.90;;;;;;;24.55;65.27;101565.06;5176257;27;20129;-59
2022/08/02 08:28:30;;;;;;;8.88;4.30;;;;;;;24.72;66.21;101573.88;5176359;27;20560;-59
2022/08/02 08:30:59;;;;;;;8.38;4.20;;;;;;;24.72;64.27;101569.38;5175295;27;20047;-59
2022/08/02 08:33:28;;;;;;;9.40;4.50;;;;;;;24.82;63.87;101566.44;5172305;27;20137;-58
2022/08/02 08:35:56;;;;;;;6.57;3.78;;;;;;;25.06;62.49;101567.31;5176115;27;20049;-58
2022/08/02 08:38:25;;;;;;;7.47;4.63;;;;;;;25.19;62.04;101564.88;5175995;27;20450;-59
2022/08/02 08:40:55;;;;;;;8.20;3.92;;;;;;;25.42;60.94;101559.50;5175437;27;20049;-59
2022/08/02 08:43:23;;;;;;;8.23;4.45;;;;;;;25.49;60.16;101567.69;5176476;27;20042;-59
2022/08/02 08:45:51;;;;;;;9.27;5.20;;;;;;;25.35;58.30;101558.56;5175591;27;20038;-58
2022/08/02 08:48:24;;;;;;;10.10;5.10;;;;;;;25.35;58.85;101550.47;5175957;27;20045;-58
2022/08/02 08:51:07;;;;;;;9.13;4.95;;;;;;;25.33;61.12;101552.50;5175744;27;20054;-58
2022/08/02 08:53:42;;;;;;;10.43;5.20;;;;;;;25.48;59.91;101555.25;5175791;27;20042;-59
2022/08/02 08:56:15;;;;;;;9.55;5.18;;;;;;;25.53;60.49;101550.16;5175692;27;20251;-59
2022/08/02 08:58:44;;;;;;;9.73;5.18;;;;;;;25.74;57.78;101552.16;5175520;27;20038;-57
2022/08/02 09:01:13;;;;;;;14.30;5.20;;;;;;;25.88;58.80;101561.28;5175575;27;20073;-58
2022/08/02 09:03:41;;;;;;;8.27;4.13;;;;;;;26.05;57.38;101556.56;5175640;27;20075;-57
2022/08/02 09:06:10;;;;;;;8.98;4.10;;;;;;;26.33;57.36;101553.22;5174831;27;20057;-57
2022/08/02 09:08:38;;;;;;;9.65;4.13;;;;;;;26.58;56.41;101556.44;5175289;27;20054;-57
2022/08/02 09:11:13;;;;;;;8.48;3.65;;;;;;;26.70;54.93;101554.13;5175215;27;20095;-58
2022/08/02 09:13:50;;;;;;;7.53;3.95;;;;;;;26.90;54.63;101548.94;5175298;27;20052;-58
2022/08/02 09:16:32;;;;;;;8.27;3.30;;;;;;;26.94;55.49;101555.63;5175183;27;20397;-59
2022/08/02 09:19:01;;;;;;;11.57;3.92;;;;;;;27.25;54.73;101553.63;5175404;27;20046;-59
2022/08/02 09:21:37;;;;;;;10.27;3.40;;;;;;;27.31;54.15;101558.28;5175025;27;20488;-58
2022/08/02 09:24:16;;;;;;;10.40;3.50;;;;;;;27.65;53.86;101556.69;5175145;27;20048;-59
2022/08/02 09:26:44;;;;;;;9.65;3.03;;;;;;;27.81;50.76;101556.41;5156483;27;20048;-57
2022/08/02 09:29:14;;;;;;;12.48;3.42;;;;;;;27.66;49.45;101553.81;5175046;27;20149;-59
2022/08/02 09:31:42;;;;;;;6.75;2.47;;;;;;;27.76;49.66;101550.75;5174994;27;20119;-59
2022/08/02 09:34:17;;;;;;;3.97;2.20;;;;;;;27.86;48.85;101558.50;5174866;27;20069;-57
2022/08/02 09:36:48;;;;;;;4.20;2.40;;;;;;;27.58;47.11;101550.41;5174928;27;20054;-58
2022/08/02 09:39:22;;;;;;;6.82;2.55;;;;;;;27.82;47.79;101547.25;5155729;27;20065;-60
2022/08/02 09:41:50;;;;;;;8.38;2.67;;;;;;;28.01;47.73;101546.81;5174813;27;20071;-59
2022/08/02 09:44:19;;;;;;;7.25;3.10;;;;;;;27.82;47.14;101546.44;5174726;27;20504;-59
2022/08/02 09:46:47;;;;;;;6.38;3.22;;;;;;;28.22;46.56;101551.25;5174910;27;20069;-60
2022/08/02 09:49:17;;;;;;;7.47;3.25;;;;;;;27.80;46.41;101543.94;5174585;27;20081;-59
2022/08/02 09:51:51;;;;;;;4.78;2.45;;;;;;;28.20;46.97;101545.25;5174809;27;20393;-60
2022/08/02 09:54:23;;;;;;;5.80;1.90;;;;;;;28.09;44.43;101544.75;5174937;27;20091;-58
2022/08/02 09:56:53;;;;;;;3.13;1.63;;;;;;;28.28;42.94;101553.19;5174107;27;20036;-58
2022/08/02 09:59:24;;;;;;;5.28;1.60;;;;;;;28.81;42.90;101542.56;5174196;27;20050;-60
2022/08/02 10:01:53;;;;;;;2.53;1.30;;;;;;;28.78;40.70;101534.03;5175029;27;20049;-59
2022/08/02 10:04:32;;;;;;;3.20;1.30;;;;;;;28.97;41.25;101535.09;5174570;27;20513;-58
2022/08/02 10:07:10;;;;;;;2.63;1.23;;;;;;;29.01;39.94;101533.66;5174408;27;20057;-58
2022/08/02 10:09:39;;;;;;;2.75;1.17;;;;;;;29.21;40.08;101540.97;5173718;27;20705;-59
2022/08/02 10:12:15;;;;;;;3.08;1.30;;;;;;;29.36;39.70;101546.22;5173842;27;20057;-58
2022/08/02 10:14:44;;;;;;;2.88;1.30;;;;;;;29.49;39.59;101547.03;5174266;27;20043;-59
2022/08/02 10:17:13;;;;;;;5.63;1.20;;;;;;;29.63;39.39;101549.75;5173844;27;20050;-60
2022/08/02 10:19:41;;;;;;;2.72;1.23;;;;;;;29.86;39.24;101548.47;5174350;27;20083;-58
2022/08/02 10:22:33;;;;;;;5.53;1.33;;;;;;;29.81;38.29;101544.50;5170148;27;20083;-58
2022/08/02 10:25:04;;;;;;;3.10;1.20;;;;;;;29.96;39.66;101548.88;5153848;27;20053;-58
2022/08/02 10:27:32;;;;;;;2.88;1.20;;;;;;;29.84;37.88;101549.47;5153762;27;20091;-58
2022/08/02 10:30:24;;;;;;;1.30;1.00;;;;;;;30.09;38.75;101548.84;5153365;27;20051;-59
2022/08/02 10:32:56;;;;;;;2.20;1.10;;;;;;;30.06;38.44;101546.53;5153773;27;20369;-58
2022/08/02 10:35:25;;;;;;;2.92;1.35;;;;;;;30.51;39.08;101537.63;5154253;27;20465;-58
2022/08/02 10:37:59;;;;;;;5.25;1.40;;;;;;;30.26;37.83;101545.66;5154031;27;20035;-57
2022/08/02 10:40:43;;;;;;;3.25;1.20;;;;;;;30.13;38.35;101547.38;5153960;27;20560;-58
2022/08/02 10:43:12;;;;;;;3.13;1.30;;;;;;;30.33;39.50;101539.13;5154377;27;20516;-57
2022/08/02 10:45:40;;;;;;;2.58;1.20;;;;;;;30.42;39.25;101545.19;5153831;27;20118;-58
2022/08/02 10:48:14;;;;;;;4.65;1.40;;;;;;;30.44;38.62;101547.66;5154119;27;20054;-59
2022/08/02 10:50:53;;;;;;;2.22;1.10;;;;;;;30.27;37.78;101542.72;5154280;27;20465;-59
2022/08/02 10:53:27;;;;;;;2.75;1.15;;;;;;;30.55;38.13;101546.19;5149613;27;20522;-59
2022/08/02 10:55:59;;;;;;;2.45;1.23;;;;;;;30.46;38.91;101543.72;5153069;27;20045;-60
2022/08/02 10:58:31;;;;;;;2.83;1.30;;;;;;;30.61;38.23;101537.16;5150888;27;20706;-58
2022/08/02 11:01:04;;;;;;;2.35;1.25;;;;;;;31.00;36.94;101536.09;5149999;27;20151;-58
2022/08/02 11:03:39;;;;;;;2.03;1.10;;;;;;;31.07;38.35;101530.63;5153151;27;20119;-58
2022/08/02 11:06:09;;;;;;;2.40;1.30;;;;;;;30.91;36.84;101532.00;5153392;27;20050;-58
2022/08/02 11:09:27;;;;;;;4.22;1.50;;;;;;;31.38;36.67;101526.22;5151773;27;20500;-60
2022/08/02 11:12:02;;;;;;;1.27;1.00;;;;;;;31.32;36.18;101527.13;5102291;27;20107;-58
2022/08/02 11:14:31;;;;;;;4.28;1.30;;;;;;;30.99;36.48;101528.16;5138639;27;20042;-60
2022/08/02 11:17:10;;;;;;;4.53;1.33;;;;;;;31.59;35.62;101532.28;5138766;27;20061;-58
2022/08/02 11:20:17;;;;;;;2.67;1.10;;;;;;;31.74;34.79;101524.66;5157363;27;20053;-58
2022/08/02 11:22:47;;;;;;;1.67;1.02;;;;;;;31.89;35.46;101516.13;5157020;27;20053;-60
2022/08/02 11:25:33;;;;;;;2.53;1.08;;;;;;;31.48;34.13;101531.97;5156762;27;20066;-61
2022/08/02 11:28:22;;;;;;;1.65;1.00;;;;;;;32.00;34.90;101536.28;5156760;27;20589;-60
2022/08/02 11:31:00;;;;;;;2.92;1.33;;;;;;;32.41;33.59;101534.78;5156714;27;20577;-59
2022/08/02 11:33:35;;;;;;;2.35;1.20;;;;;;;32.69;35.43;101536.88;5156836;27;20461;-59
2022/08/02 11:36:06;;;;;;;3.28;1.20;;;;;;;32.76;33.18;101536.00;5153582;27;20069;-60
2022/08/02 11:38:34;;;;;;;1.85;1.20;;;;;;;32.17;32.68;101522.94;5152040;27;20054;-58
2022/08/02 11:41:04;;;;;;;5.00;1.42;;;;;;;31.81;34.18;101525.41;5156474;27;20529;-61
2022/08/02 11:43:38;;;;;;;3.45;1.40;;;;;;;32.37;35.08;101528.13;5136583;27;20145;-60
2022/08/02 11:46:13;;;;;;;2.75;1.50;;;;;;;32.61;33.99;101523.59;5134813;27;20043;-57